Time;durP1;ratioP1;P1;durP2;ratioP2;P2;SDS_P1;SDS_P2;PMS_P1;PMS_P2;Temp;Humidity;BMP_temperature;BMP_pressure;BME280_temperature;BME280_humidity;BME280_pressure;Samples;Min_cycle;Max_cycle;Signal;HPM_P1;HPM_P2
2023/07/29 00:02:19;;;;;;;5.85;3.28;;;;;;;23.25;74.16;97812.00;5077695;28;20043;-83
2023/07/29 00:05:03;;;;;;;3.35;3.03;;;;;;;23.37;73.85;97807.94;5082432;28;20038;-83
2023/07/29 00:07:50;;;;;;;4.07;2.33;;;;;;;23.56;73.52;97812.25;5082880;28;20127;-82
2023/07/29 00:10:37;;;;;;;5.97;2.90;;;;;;;23.42;73.74;97812.38;5078430;28;20062;-81
2023/07/29 00:13:21;;;;;;;3.22;2.83;;;;;;;23.16;74.47;97813.03;5078418;28;20039;-82
2023/07/29 00:16:06;;;;;;;4.57;3.38;;;;;;;23.20;74.34;97811.31;5080274;28;20039;-82
2023/07/29 00:18:52;;;;;;;4.80;3.05;;;;;;;23.04;74.53;97816.28;5079423;28;20059;-82
2023/07/29 00:21:36;;;;;;;4.85;2.78;;;;;;;23.09;74.94;97813.47;5080897;28;20042;-82
2023/07/29 00:24:20;;;;;;;7.43;2.67;;;;;;;23.02;74.91;97818.47;5078369;28;20039;-82
2023/07/29 00:27:04;;;;;;;3.40;2.88;;;;;;;23.06;75.26;97803.38;5079043;28;20043;-83
2023/07/29 00:29:48;;;;;;;6.40;2.80;;;;;;;23.42;74.45;97798.97;5083571;28;20063;-82
2023/07/29 00:32:33;;;;;;;4.35;3.17;;;;;;;23.28;74.45;97801.78;5084012;28;20039;-83
2023/07/29 00:35:17;;;;;;;6.47;2.58;;;;;;;23.51;74.43;97803.25;5079396;28;20133;-83
2023/07/29 00:38:01;;;;;;;7.28;3.05;;;;;;;23.17;74.79;97804.66;5077748;28;20071;-82
2023/07/29 00:40:44;;;;;;;5.15;2.83;;;;;;;23.56;74.02;97794.31;5080164;28;20508;-82
2023/07/29 00:43:29;;;;;;;4.03;2.92;;;;;;;23.43;74.79;97781.81;5077900;28;20086;-83
2023/07/29 00:46:13;;;;;;;3.97;3.10;;;;;;;23.50;74.88;97790.97;5079050;28;20404;-82
2023/07/29 00:48:57;;;;;;;4.75;2.60;;;;;;;23.38;74.37;97783.53;5077020;28;20051;-82
2023/07/29 00:51:41;;;;;;;3.45;3.00;;;;;;;23.16;75.28;97792.38;5077643;28;20521;-82
2023/07/29 00:54:25;;;;;;;8.45;3.10;;;;;;;23.07;75.31;97778.19;5078704;28;20082;-82
2023/07/29 00:57:13;;;;;;;6.57;3.20;;;;;;;23.12;75.25;97778.06;5080172;28;20527;-83
2023/07/29 00:59:59;;;;;;;5.70;3.45;;;;;;;22.94;76.04;97779.88;5077615;28;20093;-82
2023/07/29 01:02:44;;;;;;;4.90;3.03;;;;;;;23.03;75.71;97782.59;5075039;28;20032;-83
2023/07/29 01:05:35;;;;;;;5.18;3.35;;;;;;;23.03;75.26;97790.63;5080417;28;20048;-83
2023/07/29 01:08:36;;;;;;;6.63;3.63;;;;;;;23.07;75.68;97787.00;5077024;28;20098;-82
2023/07/29 01:11:39;;;;;;;4.53;2.95;;;;;;;23.19;75.49;97785.63;5079598;28;20082;-83
2023/07/29 01:14:32;;;;;;;5.22;2.83;;;;;;;23.09;75.29;97776.00;5083671;28;20031;-83
2023/07/29 01:17:23;;;;;;;5.88;3.22;;;;;;;23.21;75.19;97784.25;5079218;28;20063;-81
2023/07/29 01:20:20;;;;;;;5.82;2.97;;;;;;;23.17;75.49;97793.97;5085481;28;20421;-81
2023/07/29 01:23:04;;;;;;;4.45;3.33;;;;;;;23.11;75.34;97789.84;5080303;28;20051;-81
2023/07/29 01:25:48;;;;;;;4.72;3.58;;;;;;;22.97;75.99;97774.66;5081299;28;20043;-80
2023/07/29 01:28:32;;;;;;;3.42;2.88;;;;;;;23.01;76.28;97776.75;5084030;28;20039;-80
2023/07/29 01:31:31;;;;;;;5.72;3.38;;;;;;;22.93;75.94;97776.38;5083381;28;20043;-81
2023/07/29 01:34:35;;;;;;;5.78;3.42;;;;;;;22.90;76.48;97779.69;5084632;28;20039;-81
2023/07/29 01:37:25;;;;;;;5.18;3.42;;;;;;;22.96;76.33;97783.03;5077773;28;20044;-81
2023/07/29 01:40:10;;;;;;;4.78;3.60;;;;;;;23.11;75.89;97774.59;5083719;28;20128;-81
2023/07/29 01:42:55;;;;;;;4.65;3.28;;;;;;;23.00;76.59;97777.84;5086964;28;20097;-80
2023/07/29 01:45:40;;;;;;;5.88;3.50;;;;;;;23.05;76.20;97777.72;5084756;28;20550;-81
2023/07/29 01:48:24;;;;;;;4.05;3.35;;;;;;;22.98;75.64;97767.44;5079927;28;20051;-80
2023/07/29 01:51:11;;;;;;;4.10;3.08;;;;;;;23.00;75.45;97773.28;5077539;28;20567;-81
2023/07/29 01:53:55;;;;;;;5.10;3.80;;;;;;;23.02;75.37;97770.31;5081249;28;20406;-80
2023/07/29 01:56:39;;;;;;;8.18;3.33;;;;;;;22.81;75.85;97762.81;5080820;28;20037;-81
2023/07/29 01:59:23;;;;;;;4.13;3.50;;;;;;;22.66;76.20;97759.41;5082117;28;20452;-81
2023/07/29 02:02:07;;;;;;;3.97;3.42;;;;;;;22.65;76.22;97749.03;5078402;28;20105;-81
2023/07/29 02:04:52;;;;;;;5.60;3.42;;;;;;;22.51;77.03;97763.28;5079960;28;20125;-81
2023/07/29 02:07:36;;;;;;;6.80;3.58;;;;;;;22.32;77.02;97774.09;5078553;28;20402;-81
2023/07/29 02:10:21;;;;;;;4.43;3.05;;;;;;;22.33;77.62;97766.88;5083027;28;20047;-80
2023/07/29 02:13:05;;;;;;;4.47;3.25;;;;;;;22.46;77.23;97771.38;5077850;28;20148;-81
2023/07/29 02:15:49;;;;;;;8.90;4.35;;;;;;;22.32;77.93;97778.69;5080456;28;20075;-81
2023/07/29 02:18:33;;;;;;;3.58;2.80;;;;;;;22.19;78.76;97774.94;5080506;28;20054;-81
2023/07/29 02:21:17;;;;;;;5.35;3.13;;;;;;;22.02;79.01;97768.38;5081653;28;20086;-81
2023/07/29 02:24:01;;;;;;;5.35;3.53;;;;;;;22.03;79.26;97763.81;5077930;28;20079;-81
2023/07/29 02:26:45;;;;;;;6.43;4.00;;;;;;;22.15;78.71;97761.41;5076374;28;20126;-81
2023/07/29 02:29:30;;;;;;;6.25;3.65;;;;;;;22.20;78.66;97763.16;5081100;28;20121;-81
2023/07/29 02:32:14;;;;;;;4.95;3.20;;;;;;;22.00;78.86;97754.50;5083797;28;20101;-80
2023/07/29 02:34:58;;;;;;;4.72;3.47;;;;;;;21.94;79.55;97759.19;5080074;28;20433;-80
2023/07/29 02:37:42;;;;;;;6.22;3.65;;;;;;;22.18;78.49;97751.97;5084663;28;20152;-81
2023/07/29 02:40:26;;;;;;;4.68;3.80;;;;;;;22.08;78.88;97753.81;5081867;28;20047;-81
2023/07/29 02:43:10;;;;;;;6.97;3.28;;;;;;;21.97;78.90;97749.78;5085793;28;20034;-81
2023/07/29 02:45:54;;;;;;;4.10;3.00;;;;;;;22.01;78.74;97744.63;5079216;28;20047;-80
2023/07/29 02:48:38;;;;;;;7.57;3.65;;;;;;;21.97;78.61;97745.22;5081934;28;20079;-82
2023/07/29 02:51:22;;;;;;;3.72;3.10;;;;;;;22.00;78.84;97743.81;5081001;28;20097;-82
2023/07/29 02:54:06;;;;;;;4.40;2.92;;;;;;;21.95;78.32;97747.41;5084539;28;20039;-82
2023/07/29 02:56:51;;;;;;;5.10;3.00;;;;;;;21.86;78.14;97749.22;5079264;28;20035;-82
2023/07/29 02:59:34;;;;;;;;;;;;;;;21.76;77.35;97744.09;5082631;28;20093;-81
2023/07/29 03:02:18;;;;;;;5.30;3.10;;;;;;;21.99;76.69;97744.91;5080600;28;19923;-82
2023/07/29 03:05:03;;;;;;;4.57;2.85;;;;;;;21.89;76.61;97731.81;5083218;28;20091;-82
2023/07/29 03:07:47;;;;;;;4.80;2.90;;;;;;;21.59;76.32;97729.47;5079151;28;20055;-81
2023/07/29 03:10:31;;;;;;;4.97;2.92;;;;;;;21.81;75.84;97718.09;5082005;28;20097;-81
2023/07/29 03:13:15;;;;;;;10.57;2.78;;;;;;;21.92;75.03;97723.19;5080770;28;20420;-81
2023/07/29 03:16:06;;;;;;;5.63;2.63;;;;;;;21.67;76.10;97722.66;5080453;28;20042;-81
2023/07/29 03:18:50;;;;;;;7.22;2.78;;;;;;;21.70;75.64;97716.72;5081767;28;20044;-81
2023/07/29 03:21:34;;;;;;;6.28;2.75;;;;;;;21.64;75.62;97710.66;5080231;28;20047;-81
2023/07/29 03:24:18;;;;;;;3.75;2.95;;;;;;;21.28;76.30;97702.63;5078840;28;20454;-81
2023/07/29 03:27:02;;;;;;;4.88;2.75;;;;;;;21.27;76.20;97699.16;5079388;28;20079;-80
2023/07/29 03:29:47;;;;;;;5.55;3.15;;;;;;;21.28;76.64;97707.97;5080794;28;20098;-80
2023/07/29 03:32:31;;;;;;;6.82;2.70;;;;;;;20.91;77.12;97703.31;5080143;28;20129;-81
2023/07/29 03:35:16;;;;;;;7.28;3.17;;;;;;;21.07;77.56;97708.34;5079853;28;20043;-81
2023/07/29 03:38:00;;;;;;;9.80;2.90;;;;;;;21.09;76.53;97706.19;5083526;28;20065;-81
2023/07/29 03:40:44;;;;;;;7.75;3.72;;;;;;;21.00;77.58;97706.09;5080945;28;20081;-81
2023/07/29 03:43:28;;;;;;;7.80;3.28;;;;;;;20.95;77.39;97703.50;5077456;28;20066;-81
2023/07/29 03:46:13;;;;;;;8.98;2.95;;;;;;;21.01;77.42;97706.84;5079239;28;20050;-81
2023/07/29 03:48:57;;;;;;;7.53;3.30;;;;;;;20.95;77.62;97708.84;5082548;28;20043;-80
2023/07/29 03:51:41;;;;;;;6.30;3.20;;;;;;;20.86;78.01;97703.41;5083779;28;20089;-80
2023/07/29 03:54:25;;;;;;;4.72;3.05;;;;;;;20.90;77.86;97708.94;5075697;28;20048;-80
2023/07/29 03:57:09;;;;;;;8.07;2.83;;;;;;;20.83;77.87;97710.13;5080910;28;20035;-80
2023/07/29 03:59:53;;;;;;;8.70;3.60;;;;;;;20.89;78.21;97712.69;5075919;28;20141;-81
2023/07/29 04:02:37;;;;;;;12.55;4.10;;;;;;;20.81;77.96;97703.47;5081002;28;20547;-81
2023/07/29 04:05:21;;;;;;;5.55;3.25;;;;;;;21.20;77.02;97704.88;5075394;28;20420;-81
2023/07/29 04:08:06;;;;;;;10.82;3.85;;;;;;;21.26;77.01;97714.38;5084710;28;20062;-80
2023/07/29 04:10:50;;;;;;;10.88;3.47;;;;;;;21.23;77.03;97704.31;5075839;28;20070;-81
2023/07/29 04:13:37;;;;;;;8.45;3.30;;;;;;;21.22;77.04;97710.72;5073481;28;20051;-81
2023/07/29 04:16:21;;;;;;;7.18;3.03;;;;;;;21.22;77.12;97705.41;5079537;28;20056;-81
2023/07/29 04:19:06;;;;;;;9.07;3.47;;;;;;;21.16;77.49;97711.91;5075107;28;20044;-80
2023/07/29 04:21:50;;;;;;;7.10;3.03;;;;;;;21.21;77.65;97709.13;5073738;28;20126;-81
2023/07/29 04:24:34;;;;;;;9.52;3.65;;;;;;;21.35;76.93;97693.13;5081671;28;20431;-81
2023/07/29 04:27:18;;;;;;;7.22;3.13;;;;;;;21.31;77.06;97696.69;5083989;28;20911;-81
2023/07/29 04:30:03;;;;;;;10.82;3.58;;;;;;;21.22;77.22;97705.41;5078047;28;20043;-80
2023/07/29 04:32:48;;;;;;;8.18;3.28;;;;;;;21.26;77.64;97701.03;5077586;28;20544;-80
2023/07/29 04:35:32;;;;;;;9.50;4.30;;;;;;;21.18;78.08;97715.06;5083723;28;20073;-80
2023/07/29 04:38:16;;;;;;;7.00;3.53;;;;;;;21.07;78.01;97719.03;5078025;28;20059;-80
2023/07/29 04:41:01;;;;;;;6.68;3.65;;;;;;;20.75;78.93;97713.44;5081169;28;20047;-80
2023/07/29 04:43:45;;;;;;;8.77;3.75;;;;;;;20.89;78.66;97708.16;5075371;28;20089;-80
2023/07/29 04:46:29;;;;;;;7.60;3.42;;;;;;;21.06;78.20;97712.13;5077138;28;20406;-81
2023/07/29 04:49:13;;;;;;;;;;;;;;;20.90;79.25;97715.06;5085507;28;20052;-79
2023/07/29 04:51:57;;;;;;;5.90;3.97;;;;;;;21.09;78.47;97712.28;5082415;28;19919;-80
2023/07/29 04:54:41;;;;;;;10.55;4.03;;;;;;;21.20;78.13;97709.44;5078868;28;20044;-80
2023/07/29 04:57:25;;;;;;;6.45;3.40;;;;;;;21.34;77.97;97704.09;5089190;28;20153;-80
2023/07/29 05:00:09;;;;;;;7.43;3.80;;;;;;;21.25;78.84;97701.31;5084623;28;20067;-79
2023/07/29 05:02:53;;;;;;;7.15;3.60;;;;;;;21.09;78.23;97716.84;5082332;28;20035;-79
2023/07/29 05:05:37;;;;;;;6.35;3.42;;;;;;;21.58;77.41;97711.06;5082772;28;20097;-80
2023/07/29 05:08:21;;;;;;;8.73;3.90;;;;;;;21.44;77.75;97714.56;5079659;28;20047;-80
2023/07/29 05:11:05;;;;;;;8.50;4.28;;;;;;;21.70;76.86;97724.72;5086078;28;20094;-80
2023/07/29 05:13:49;;;;;;;12.82;4.22;;;;;;;21.71;76.84;97731.66;5078992;28;20453;-80
2023/07/29 05:16:33;;;;;;;9.98;3.65;;;;;;;22.02;76.79;97725.63;5082319;28;20047;-80
2023/07/29 05:19:17;;;;;;;12.38;4.03;;;;;;;22.12;76.25;97727.28;5087829;28;20047;-80
2023/07/29 05:22:02;;;;;;;8.57;4.13;;;;;;;22.19;76.11;97732.19;5077316;28;20082;-80
2023/07/29 05:24:45;;;;;;;8.18;4.03;;;;;;;22.38;75.93;97732.78;5083491;28;20089;-80
2023/07/29 05:27:29;;;;;;;12.40;4.40;;;;;;;22.22;75.99;97737.72;5080760;28;20541;-79
2023/07/29 05:30:13;;;;;;;10.18;4.10;;;;;;;22.44;75.44;97725.44;5084275;28;20035;-80
2023/07/29 05:32:58;;;;;;;10.48;3.85;;;;;;;22.71;75.07;97734.44;5084069;28;20390;-80
2023/07/29 05:35:42;;;;;;;8.43;4.10;;;;;;;22.54;74.80;97724.41;5086655;28;20052;-80
2023/07/29 05:38:25;;;;;;;11.18;4.18;;;;;;;22.46;75.08;97731.25;5079937;28;20485;-80
2023/07/29 05:41:09;;;;;;;9.60;4.70;;;;;;;22.52;74.72;97731.97;5080631;28;20043;-79
2023/07/29 05:43:53;;;;;;;9.75;4.65;;;;;;;22.27;75.29;97731.47;5084427;28;20571;-80
2023/07/29 05:46:37;;;;;;;13.20;4.20;;;;;;;22.43;75.09;97733.78;5088310;28;20093;-80
2023/07/29 05:49:21;;;;;;;;;;;;;;;22.25;75.28;97730.97;5080242;28;20120;-80
2023/07/29 05:52:05;;;;;;;10.15;4.63;;;;;;;22.02;76.07;97739.00;5078916;28;19958;-79
2023/07/29 05:54:49;;;;;;;9.27;4.43;;;;;;;22.06;76.22;97737.28;5082345;28;20040;-80
2023/07/29 05:57:33;;;;;;;15.00;4.85;;;;;;;21.90;76.81;97738.72;5078809;28;20994;-79
2023/07/29 06:00:17;;;;;;;8.32;4.05;;;;;;;21.85;77.13;97736.94;5081922;28;20505;-80
2023/07/29 06:03:01;;;;;;;7.80;4.20;;;;;;;21.80;76.92;97727.16;5082166;28;20048;-79
2023/07/29 06:05:45;;;;;;;;;;;;;;;21.54;77.96;97727.69;5078591;28;20492;-79
2023/07/29 06:08:29;;;;;;;7.78;3.90;;;;;;;21.42;78.52;97729.28;5085628;28;20385;-80
2023/07/29 06:11:13;;;;;;;7.28;3.85;;;;;;;21.60;78.34;97735.59;5079715;28;20039;-80
2023/07/29 06:13:57;;;;;;;10.43;4.00;;;;;;;21.76;77.92;97733.41;5083931;28;20165;-80
2023/07/29 06:16:41;;;;;;;15.73;4.93;;;;;;;21.78;78.26;97732.00;5078906;28;20524;-80
2023/07/29 06:19:25;;;;;;;12.38;4.40;;;;;;;22.20;76.91;97736.44;5079856;28;20036;-81
2023/07/29 06:22:09;;;;;;;10.20;3.88;;;;;;;22.31;76.73;97737.78;5081743;28;20100;-81
2023/07/29 06:24:54;;;;;;;7.85;4.20;;;;;;;22.26;76.50;97730.66;5087036;28;20127;-81
2023/07/29 06:27:38;;;;;;;9.05;4.10;;;;;;;22.69;76.27;97731.25;5080408;28;20047;-82
2023/07/29 06:30:22;;;;;;;11.32;3.75;;;;;;;22.65;76.32;97725.75;5079538;28;20525;-79
2023/07/29 06:33:06;;;;;;;8.02;3.88;;;;;;;22.37;77.04;97731.19;5082451;28;20039;-80
2023/07/29 06:35:50;;;;;;;9.77;3.67;;;;;;;22.08;77.51;97740.44;5083481;28;20494;-80
2023/07/29 06:38:34;;;;;;;8.80;3.80;;;;;;;22.00;77.89;97743.03;5086253;28;20119;-81
2023/07/29 06:41:18;;;;;;;13.43;4.53;;;;;;;22.15;78.14;97749.91;5083307;28;20047;-81
2023/07/29 06:44:03;;;;;;;8.45;3.83;;;;;;;22.09;78.55;97747.38;5077018;28;20050;-81
2023/07/29 06:46:47;;;;;;;9.90;3.78;;;;;;;22.21;78.73;97759.41;5079885;28;20116;-81
2023/07/29 06:49:31;;;;;;;9.40;4.20;;;;;;;22.90;77.40;97744.91;5077805;28;20039;-82
2023/07/29 06:52:15;;;;;;;13.50;4.45;;;;;;;23.19;76.21;97743.63;5077821;28;20139;-80
2023/07/29 06:54:59;;;;;;;7.35;3.55;;;;;;;23.43;75.43;97747.81;5080930;28;20135;-81
2023/07/29 06:57:43;;;;;;;9.30;3.58;;;;;;;23.09;74.63;97749.22;5083054;28;20077;-81
2023/07/29 07:00:27;;;;;;;7.32;3.28;;;;;;;23.38;74.27;97758.63;5074745;28;20520;-81
2023/07/29 07:03:11;;;;;;;6.43;3.20;;;;;;;23.80;73.67;97751.03;5082506;28;20047;-81
2023/07/29 07:05:55;;;;;;;8.75;3.63;;;;;;;23.68;73.15;97748.16;5079625;28;20043;-81
2023/07/29 07:08:39;;;;;;;9.68;3.30;;;;;;;24.01;72.86;97742.34;5076083;28;20117;-81
2023/07/29 07:11:23;;;;;;;4.93;3.40;;;;;;;24.34;72.23;97747.22;5081807;28;20397;-80
2023/07/29 07:14:07;;;;;;;11.13;3.97;;;;;;;24.77;71.83;97744.84;5081025;28;20093;-81
2023/07/29 07:16:51;;;;;;;9.18;3.25;;;;;;;24.62;70.91;97749.56;5080569;28;20043;-80
2023/07/29 07:19:35;;;;;;;7.53;3.80;;;;;;;24.73;70.40;97741.16;5077762;28;20402;-82
2023/07/29 07:22:19;;;;;;;7.40;3.38;;;;;;;25.44;69.75;97747.84;5078295;28;20455;-82
2023/07/29 07:25:03;;;;;;;6.47;3.28;;;;;;;25.53;68.70;97745.91;5080444;28;20062;-81
2023/07/29 07:27:48;;;;;;;6.47;3.20;;;;;;;25.69;67.91;97744.56;5081969;28;20042;-80
2023/07/29 07:30:32;;;;;;;6.25;3.40;;;;;;;26.12;67.09;97753.41;5082004;28;20042;-81
2023/07/29 07:33:16;;;;;;;7.80;3.80;;;;;;;25.55;66.21;97753.66;5083545;28;20031;-79
2023/07/29 07:36:00;;;;;;;8.07;3.20;;;;;;;25.43;67.39;97751.66;5080442;28;20208;-78
2023/07/29 07:38:44;;;;;;;6.97;3.20;;;;;;;25.47;68.12;97752.59;5079350;28;20088;-81
2023/07/29 07:41:28;;;;;;;8.93;3.83;;;;;;;26.02;66.88;97743.81;5081047;28;20047;-79
2023/07/29 07:44:15;;;;;;;8.65;3.55;;;;;;;26.28;66.40;97751.69;5077129;28;20093;-79
2023/07/29 07:46:59;;;;;;;5.75;3.28;;;;;;;26.12;66.24;97750.72;5080610;28;20393;-79
2023/07/29 07:49:43;;;;;;;4.82;3.50;;;;;;;26.05;65.64;97754.72;5082173;28;20047;-78
2023/07/29 07:52:27;;;;;;;7.20;3.50;;;;;;;26.15;65.52;97752.75;5080448;28;20039;-79
2023/07/29 07:55:12;;;;;;;6.03;3.17;;;;;;;26.50;65.68;97753.25;5077942;28;20051;-78
2023/07/29 07:57:56;;;;;;;5.70;3.22;;;;;;;26.45;64.51;97768.81;5077493;28;20040;-80
2023/07/29 08:00:39;;;;;;;9.70;3.38;;;;;;;26.45;63.37;97761.53;5075821;28;20101;-79
2023/07/29 08:03:23;;;;;;;10.57;3.90;;;;;;;25.98;63.94;97767.91;5082223;28;20047;-80
2023/07/29 08:06:07;;;;;;;7.72;3.00;;;;;;;26.12;64.85;97758.78;5083372;28;20101;-79
2023/07/29 08:08:52;;;;;;;7.07;3.85;;;;;;;25.88;64.65;97760.22;5077961;28;20212;-81
2023/07/29 08:11:36;;;;;;;6.45;3.30;;;;;;;26.10;63.66;97751.81;5078947;28;20047;-79
2023/07/29 08:14:20;;;;;;;7.82;2.70;;;;;;;26.15;63.31;97752.75;5082998;28;20050;-79
2023/07/29 08:17:04;;;;;;;9.60;3.25;;;;;;;25.91;63.98;97755.00;5079493;28;20567;-79
2023/07/29 08:19:48;;;;;;;4.22;2.70;;;;;;;26.33;63.08;97751.50;5082095;28;20410;-79
2023/07/29 08:22:32;;;;;;;5.22;2.85;;;;;;;26.37;62.77;97755.13;5082213;28;20131;-79
2023/07/29 08:25:16;;;;;;;4.95;2.58;;;;;;;25.65;63.61;97768.59;5081066;28;20043;-79
2023/07/29 08:28:03;;;;;;;6.20;2.70;;;;;;;25.71;63.95;97761.16;5081929;28;20078;-79
2023/07/29 08:30:47;;;;;;;4.97;2.53;;;;;;;25.68;63.73;97762.56;5089414;28;20505;-80
2023/07/29 08:33:33;;;;;;;10.27;2.50;;;;;;;24.97;64.76;97755.97;5083215;28;20131;-80
2023/07/29 08:36:17;;;;;;;11.77;2.72;;;;;;;25.74;64.15;97758.56;5082123;28;20088;-80
2023/07/29 08:39:01;;;;;;;5.50;2.78;;;;;;;25.43;64.31;97750.84;5085656;28;20054;-79
2023/07/29 08:42:04;;;;;;;6.82;3.03;;;;;;;25.60;64.46;97755.38;5083014;28;20043;-79
2023/07/29 08:44:49;;;;;;;8.30;2.88;;;;;;;25.46;64.77;97756.38;5082515;28;20055;-80
2023/07/29 08:47:33;;;;;;;5.57;2.33;;;;;;;25.59;63.73;97767.22;5079880;28;20043;-80
2023/07/29 08:50:18;;;;;;;5.00;2.40;;;;;;;25.18;64.21;97762.19;5081899;28;20050;-80
2023/07/29 08:53:05;;;;;;;4.63;1.90;;;;;;;24.50;63.04;97766.31;5083687;28;20074;-79
2023/07/29 08:55:49;;;;;;;6.43;2.67;;;;;;;25.12;62.91;97766.16;5085709;28;20035;-80
2023/07/29 08:58:34;;;;;;;5.38;2.38;;;;;;;25.39;61.44;97761.47;5085203;28;20055;-80
2023/07/29 09:01:18;;;;;;;5.70;2.75;;;;;;;25.40;60.73;97752.28;5086077;28;20040;-79
2023/07/29 09:04:03;;;;;;;4.60;2.40;;;;;;;25.17;61.62;97763.31;5086847;28;20078;-79
2023/07/29 09:06:50;;;;;;;6.97;2.65;;;;;;;25.37;61.35;97763.69;5082252;28;20508;-79
2023/07/29 09:09:34;;;;;;;8.73;2.33;;;;;;;25.77;60.01;97759.84;5081114;28;20063;-79
2023/07/29 09:12:19;;;;;;;6.07;2.45;;;;;;;25.98;60.54;97761.75;5084869;28;20044;-79
2023/07/29 09:15:04;;;;;;;6.28;2.53;;;;;;;26.02;59.61;97755.38;5083003;28;20043;-79
2023/07/29 09:17:48;;;;;;;6.95;2.53;;;;;;;25.29;58.88;97759.13;5078195;28;20044;-79
2023/07/29 09:20:33;;;;;;;7.78;2.05;;;;;;;25.25;58.72;97756.31;5086354;28;20092;-79
2023/07/29 09:23:18;;;;;;;7.70;2.83;;;;;;;24.70;59.06;97758.72;5078609;28;20140;-79
2023/07/29 09:26:02;;;;;;;7.60;2.75;;;;;;;24.13;59.76;97752.47;5084353;28;20046;-79
2023/07/29 09:28:55;;;;;;;7.63;2.72;;;;;;;24.75;59.89;97760.41;5078232;28;20071;-79
2023/07/29 09:31:39;;;;;;;10.02;2.97;;;;;;;25.19;60.40;97769.16;5082261;28;20198;-80
2023/07/29 09:34:23;;;;;;;7.82;2.40;;;;;;;24.84;59.42;97763.91;5083762;28;20440;-79
2023/07/29 09:37:06;;;;;;;5.20;2.20;;;;;;;25.00;59.30;97771.44;5084899;28;20085;-79
2023/07/29 09:39:50;;;;;;;9.13;2.60;;;;;;;24.79;58.90;97753.34;5083708;28;20102;-79
2023/07/29 09:42:34;;;;;;;6.22;2.20;;;;;;;24.60;59.57;97762.50;5082258;28;20121;-79
2023/07/29 09:45:26;;;;;;;5.82;2.20;;;;;;;25.32;58.23;97761.97;5081320;28;20038;-78
2023/07/29 09:48:11;;;;;;;6.68;2.35;;;;;;;25.29;59.18;97757.25;5085216;28;20089;-79
2023/07/29 09:50:55;;;;;;;5.13;2.35;;;;;;;25.66;58.12;97760.22;5086176;28;20067;-79
2023/07/29 09:53:44;;;;;;;7.50;2.33;;;;;;;26.32;58.13;97759.91;5081247;28;20077;-80
2023/07/29 09:56:28;;;;;;;5.85;2.53;;;;;;;26.55;56.78;97751.47;5081020;28;20055;-80
2023/07/29 09:59:12;;;;;;;3.63;2.00;;;;;;;26.89;56.65;97747.63;5085072;28;20505;-81
2023/07/29 10:01:56;;;;;;;3.92;2.03;;;;;;;26.20;56.85;97755.28;5082267;28;20098;-80
2023/07/29 10:04:42;;;;;;;6.47;2.30;;;;;;;26.67;56.13;97754.19;5081101;28;20139;-80
2023/07/29 10:07:26;;;;;;;4.47;2.20;;;;;;;26.45;56.75;97752.66;5076630;28;20101;-80
2023/07/29 10:10:11;;;;;;;6.25;2.58;;;;;;;26.83;56.50;97748.16;5080987;28;20040;-79
2023/07/29 10:12:56;;;;;;;5.07;2.35;;;;;;;26.86;54.71;97758.28;5082183;28;20063;-80
2023/07/29 10:15:41;;;;;;;5.03;2.28;;;;;;;26.66;53.98;97766.84;5081193;28;20066;-79
2023/07/29 10:18:26;;;;;;;5.47;2.55;;;;;;;26.60;54.93;97751.22;5081712;28;20039;-79
2023/07/29 10:21:13;;;;;;;8.77;2.45;;;;;;;26.37;54.99;97754.31;5088577;28;20047;-79
2023/07/29 10:24:02;;;;;;;7.53;2.63;;;;;;;25.84;55.99;97770.06;5081427;28;20123;-79
2023/07/29 10:26:49;;;;;;;5.80;2.80;;;;;;;25.88;56.17;97770.97;5081737;28;20570;-80
2023/07/29 10:29:38;;;;;;;7.30;2.97;;;;;;;25.93;55.86;97773.47;5084202;28;20050;-80
2023/07/29 10:32:26;;;;;;;7.50;2.88;;;;;;;26.78;56.00;97773.38;5087295;28;20557;-80
2023/07/29 10:35:12;;;;;;;5.57;2.10;;;;;;;27.00;54.22;97768.72;5080305;28;20048;-79
2023/07/29 10:37:57;;;;;;;4.00;2.28;;;;;;;27.52;53.56;97780.78;5078819;28;20087;-80
2023/07/29 10:40:51;;;;;;;6.97;2.92;;;;;;;26.97;55.03;97774.78;5081894;28;20059;-81
2023/07/29 10:43:38;;;;;;;;;;;;;;;26.83;55.85;97773.16;5078516;28;20071;-78
2023/07/29 10:46:23;;;;;;;4.05;2.40;;;;;;;27.65;55.15;97784.22;5082743;28;19978;-80
2023/07/29 10:49:07;;;;;;;8.20;2.83;;;;;;;27.44;54.55;97779.72;5076746;28;20121;-80
2023/07/29 10:51:51;;;;;;;4.97;2.60;;;;;;;27.67;55.38;97783.91;5086594;28;20546;-80
2023/07/29 10:54:46;;;;;;;10.68;2.72;;;;;;;28.00;54.81;97789.13;5080227;28;20058;-80
2023/07/29 10:57:38;;;;;;;5.50;2.10;;;;;;;27.60;53.97;97787.16;5084142;28;20178;-79
2023/07/29 11:00:22;;;;;;;5.60;2.75;;;;;;;27.61;54.51;97791.44;5078810;28;20097;-79
2023/07/29 11:03:07;;;;;;;4.13;1.90;;;;;;;27.96;53.89;97782.84;5083964;28;20042;-78
2023/07/29 11:05:53;;;;;;;4.63;2.30;;;;;;;27.56;54.67;97784.34;5083729;28;20453;-79
2023/07/29 11:08:38;;;;;;;6.43;2.45;;;;;;;27.43;56.06;97785.47;5084368;28;20168;-79
2023/07/29 11:11:22;;;;;;;7.50;2.47;;;;;;;27.09;57.74;97783.66;5081839;28;20402;-79
2023/07/29 11:14:07;;;;;;;8.57;2.70;;;;;;;27.19;57.13;97793.22;5082460;28;20122;-79
2023/07/29 11:16:53;;;;;;;6.78;3.25;;;;;;;27.33;57.15;97789.41;5084177;28;20132;-79
2023/07/29 11:19:39;;;;;;;8.10;2.53;;;;;;;26.54;57.17;97795.63;5082673;28;20043;-80
2023/07/29 11:22:24;;;;;;;5.50;2.25;;;;;;;26.83;57.64;97797.38;5078495;28;20162;-80
2023/07/29 11:25:13;;;;;;;5.63;2.40;;;;;;;25.66;56.91;97797.84;5081144;28;20055;-79
2023/07/29 11:27:58;;;;;;;8.05;2.60;;;;;;;26.37;56.07;97792.78;5082193;28;20173;-80
2023/07/29 11:30:43;;;;;;;9.00;2.50;;;;;;;26.99;55.39;97796.78;5081791;28;20102;-79
2023/07/29 11:33:28;;;;;;;8.23;2.92;;;;;;;26.97;54.27;97799.03;5082151;28;20568;-80
2023/07/29 11:36:21;;;;;;;7.65;2.80;;;;;;;27.86;54.57;97802.97;5081700;28;20051;-79
2023/07/29 11:39:11;;;;;;;6.03;2.65;;;;;;;27.14;54.24;97800.72;5084498;28;20038;-81
2023/07/29 11:41:55;;;;;;;6.82;2.45;;;;;;;27.42;54.65;97806.22;5084548;28;20632;-80
2023/07/29 11:44:40;;;;;;;10.88;2.70;;;;;;;26.62;55.26;97809.00;5082682;28;20047;-78
2023/07/29 11:47:27;;;;;;;8.80;3.30;;;;;;;26.22;56.66;97812.19;5082938;28;20535;-81
2023/07/29 11:50:15;;;;;;;8.38;3.00;;;;;;;26.35;56.81;97811.16;5079768;28;20398;-78
2023/07/29 11:53:03;;;;;;;6.97;2.67;;;;;;;26.14;56.19;97807.63;5078778;28;20078;-81
2023/07/29 11:55:52;;;;;;;6.50;2.55;;;;;;;26.19;55.50;97802.09;5074403;28;20107;-79
2023/07/29 11:58:37;;;;;;;5.97;2.55;;;;;;;25.91;54.13;97802.56;5075916;28;20109;-79
2023/07/29 12:01:22;;;;;;;5.68;2.35;;;;;;;25.90;54.63;97801.00;5076630;28;20128;-79
2023/07/29 12:04:06;;;;;;;6.30;2.75;;;;;;;26.06;53.49;97806.59;5078060;28;20047;-79
2023/07/29 12:06:51;;;;;;;5.68;2.65;;;;;;;26.03;53.61;97809.94;5078234;28;20059;-79
2023/07/29 12:09:35;;;;;;;7.43;2.53;;;;;;;26.74;53.22;97804.78;5082739;28;20104;-79
2023/07/29 12:12:22;;;;;;;9.50;2.60;;;;;;;26.20;52.16;97814.44;5078016;28;20071;-79
2023/07/29 12:15:07;;;;;;;7.18;2.60;;;;;;;26.32;51.65;97813.72;5075050;28;20054;-75
2023/07/29 12:17:56;;;;;;;7.00;2.25;;;;;;;26.45;52.11;97804.56;5076862;28;20039;-75
2023/07/29 12:20:41;;;;;;;7.97;2.42;;;;;;;26.48;51.46;97803.91;5076256;28;20046;-74
2023/07/29 12:23:26;;;;;;;9.18;2.70;;;;;;;26.99;51.46;97805.63;5071170;28;20043;-74
2023/07/29 12:26:09;;;;;;;6.70;2.42;;;;;;;27.48;51.12;97807.56;5075410;28;20500;-74
2023/07/29 12:28:53;;;;;;;6.40;2.70;;;;;;;27.78;51.33;97807.38;5079275;28;20042;-77
2023/07/29 12:31:38;;;;;;;7.03;2.50;;;;;;;27.26;51.10;97803.44;5074786;28;20397;-74
2023/07/29 12:34:25;;;;;;;3.97;2.03;;;;;;;27.14;51.67;97806.91;5074211;28;20035;-74
2023/07/29 12:37:09;;;;;;;7.50;3.00;;;;;;;27.48;50.94;97804.09;5071573;28;20044;-77
2023/07/29 12:39:53;;;;;;;7.93;2.60;;;;;;;27.65;50.70;97808.50;5077585;28;20042;-77
2023/07/29 12:42:37;;;;;;;7.95;2.92;;;;;;;27.59;51.54;97816.00;5076710;28;20410;-74
2023/07/29 12:45:22;;;;;;;9.05;3.08;;;;;;;27.84;51.64;97820.59;5071145;28;20444;-76
2023/07/29 12:48:07;;;;;;;17.33;3.47;;;;;;;27.65;49.98;97824.66;5071567;28;20052;-77
2023/07/29 12:50:52;;;;;;;9.32;2.80;;;;;;;27.88;49.95;97816.09;5071071;28;20134;-76
2023/07/29 12:53:36;;;;;;;9.57;3.17;;;;;;;27.65;50.62;97814.69;5079478;28;20109;-76
2023/07/29 12:56:20;;;;;;;8.23;3.10;;;;;;;27.13;50.55;97816.09;5072568;28;20479;-76
2023/07/29 12:59:05;;;;;;;6.82;2.58;;;;;;;26.51;51.24;97816.69;5075306;28;20168;-76